Time;durP1;ratioP1;P1;durP2;ratioP2;P2;SDS_P1;SDS_P2;PMS_P1;PMS_P2;Temp;Humidity;BMP_temperature;BMP_pressure;BME280_temperature;BME280_humidity;BME280_pressure;Samples;Min_cycle;Max_cycle;Signal;HPM_P1;HPM_P2
2022/12/26 00:01:38;;;;;;;120.82;45.30;;;;;;;4.83;100.00;100577.72;5053930;28;20037;-74
2022/12/26 00:04:04;;;;;;;73.43;28.17;;;;;;;4.82;100.00;100620.53;5053675;28;20040;-70
2022/12/26 00:06:30;;;;;;;69.35;27.90;;;;;;;4.98;100.00;100624.81;5053298;28;20041;-72
2022/12/26 00:08:58;;;;;;;68.18;28.25;;;;;;;4.52;100.00;100552.38;5053955;28;20098;-71
2022/12/26 00:11:25;;;;;;;70.82;28.55;;;;;;;5.07;100.00;100678.59;5050550;28;20049;-71
2022/12/26 00:14:02;;;;;;;63.78;26.60;;;;;;;5.20;100.00;100665.25;5053631;28;20045;-71
2022/12/26 00:16:28;;;;;;;56.97;24.58;;;;;;;5.13;100.00;100671.09;5035487;28;20138;-71
2022/12/26 00:18:54;;;;;;;39.97;18.10;;;;;;;5.13;100.00;100705.53;5053745;28;20507;-72
2022/12/26 00:21:20;;;;;;;29.10;14.13;;;;;;;5.41;100.00;100706.53;5035498;28;20043;-72
2022/12/26 00:23:46;;;;;;;33.03;16.23;;;;;;;5.06;100.00;100624.03;5053576;28;20029;-72
2022/12/26 00:26:17;;;;;;;31.90;17.55;;;;;;;4.76;100.00;100626.38;5053424;28;20124;-72
2022/12/26 00:28:44;;;;;;;29.77;17.30;;;;;;;5.25;100.00;100715.66;5053533;28;20483;-71
2022/12/26 00:31:23;;;;;;;34.17;17.98;;;;;;;4.28;100.00;100568.16;5053180;28;20325;-71
2022/12/26 00:33:48;;;;;;;30.27;18.67;;;;;;;4.74;100.00;100645.69;5053085;28;20179;-72
2022/12/26 00:36:18;;;;;;;32.17;18.90;;;;;;;4.70;100.00;100653.19;5052691;28;20136;-73
2022/12/26 00:38:44;;;;;;;33.92;19.85;;;;;;;5.07;100.00;100721.44;5053017;28;20060;-71
2022/12/26 00:41:11;;;;;;;40.47;23.95;;;;;;;4.66;100.00;100680.03;5052960;28;20041;-71
2022/12/26 00:43:37;;;;;;;29.27;19.80;;;;;;;5.00;100.00;100698.72;5052120;28;20083;-70
2022/12/26 00:46:02;;;;;;;32.40;17.17;;;;;;;4.48;100.00;100636.28;5053074;28;20076;-71
2022/12/26 00:48:28;;;;;;;33.78;20.73;;;;;;;5.14;100.00;100722.34;5052351;28;20506;-71
2022/12/26 00:50:54;;;;;;;31.67;19.52;;;;;;;5.09;100.00;100706.34;5052890;28;20044;-70
2022/12/26 00:53:20;;;;;;;36.72;21.15;;;;;;;4.62;100.00;100669.91;5034773;28;20041;-71
2022/12/26 00:55:46;;;;;;;35.33;20.88;;;;;;;4.83;100.00;100687.72;5035062;28;20107;-71
2022/12/26 00:58:11;;;;;;;31.92;18.65;;;;;;;4.95;100.00;100721.34;5052691;28;20480;-71
2022/12/26 01:00:37;;;;;;;35.70;19.20;;;;;;;4.43;100.00;100655.53;5051378;28;20049;-71
2022/12/26 01:03:05;;;;;;;34.88;21.27;;;;;;;3.92;100.00;100643.34;5051154;28;20037;-70
2022/12/26 01:05:30;;;;;;;35.63;21.65;;;;;;;4.60;100.00;100697.59;5051787;28;20098;-70
2022/12/26 01:07:56;;;;;;;25.58;15.85;;;;;;;4.28;100.00;100667.16;5051051;28;20069;-70
2022/12/26 01:10:21;;;;;;;32.88;20.38;;;;;;;4.49;100.00;100671.53;5032980;28;20044;-71
2022/12/26 01:12:46;;;;;;;25.38;15.95;;;;;;;4.85;100.00;100742.28;5051361;28;20048;-71
2022/12/26 01:15:12;;;;;;;28.83;17.40;;;;;;;4.87;100.00;100740.63;5033778;28;20036;-70
2022/12/26 01:17:37;;;;;;;20.83;12.73;;;;;;;4.16;100.00;100679.63;5051427;28;20490;-71
2022/12/26 01:20:03;;;;;;;22.10;13.63;;;;;;;4.46;100.00;100685.75;5033060;28;20044;-71
2022/12/26 01:22:29;;;;;;;15.35;10.13;;;;;;;4.38;100.00;100700.78;5032499;28;20407;-71
2022/12/26 01:24:56;;;;;;;12.90;8.70;;;;;;;4.64;100.00;100732.06;5033444;28;20051;-70
2022/12/26 01:27:22;;;;;;;13.07;9.07;;;;;;;4.79;100.00;100749.81;5050727;28;20029;-72
2022/12/26 01:29:48;;;;;;;15.82;9.68;;;;;;;3.86;100.00;100608.94;5051408;28;20065;-71
2022/12/26 01:32:14;;;;;;;13.95;9.32;;;;;;;4.17;100.00;100703.13;5051197;28;20062;-71
2022/12/26 01:34:40;;;;;;;13.38;8.50;;;;;;;4.43;100.00;100757.06;5051140;28;20036;-70
2022/12/26 01:37:05;;;;;;;12.43;8.50;;;;;;;4.05;100.00;100739.06;5050685;28;20098;-71
2022/12/26 01:39:31;;;;;;;21.25;13.27;;;;;;;4.03;100.00;100733.16;5033355;28;20045;-70
2022/12/26 01:41:56;;;;;;;25.17;15.00;;;;;;;4.54;100.00;100737.84;5050363;28;20052;-70
2022/12/26 01:44:58;;;;;;;21.33;13.55;;;;;;;4.15;100.00;100735.81;5051083;28;20033;-71
2022/12/26 01:47:38;;;;;;;20.77;12.65;;;;;;;4.31;100.00;100736.81;5050998;28;20033;-71
2022/12/26 01:50:41;;;;;;;19.55;12.82;;;;;;;4.84;100.00;100733.06;5033149;28;20040;-71
2022/12/26 01:53:42;;;;;;;20.67;12.48;;;;;;;4.54;100.00;100736.97;4991794;28;20060;-70
2022/12/26 01:56:11;;;;;;;20.03;12.73;;;;;;;4.22;100.00;100729.16;5028069;28;20128;-71
2022/12/26 01:58:40;;;;;;;18.07;12.70;;;;;;;4.51;100.00;100727.75;5006891;28;1214005;-70
2022/12/26 02:01:08;;;;;;;20.17;13.15;;;;;;;3.99;100.00;100723.91;5051660;28;20127;-70
2022/12/26 02:06:21;;;;;;;19.30;13.13;;;;;;;3.84;100.00;100748.91;5051481;28;20204;-70
2022/12/26 02:08:46;;;;;;;17.77;12.13;;;;;;;4.27;100.00;100712.44;5033429;28;20555;-70
2022/12/26 02:11:27;;;;;;;18.98;12.55;;;;;;;3.41;100.00;100667.09;5051102;28;20044;-71
2022/12/26 02:13:53;;;;;;;16.52;9.65;;;;;;;3.73;100.00;100725.28;5032858;28;20033;-69
2022/12/26 02:16:19;;;;;;;17.45;12.13;;;;;;;3.70;100.00;100662.41;5033148;28;20037;-71
2022/12/26 02:18:45;;;;;;;16.50;12.63;;;;;;;3.65;100.00;100659.00;5033187;28;20107;-70
2022/12/26 02:21:33;;;;;;;17.13;12.00;;;;;;;3.86;100.00;100731.31;5033220;28;20056;-70
2022/12/26 02:24:23;;;;;;;16.50;11.80;;;;;;;4.20;100.00;100713.19;5051216;28;20043;-71
2022/12/26 02:27:03;;;;;;;19.48;12.80;;;;;;;3.88;100.00;100724.63;5050838;28;20039;-70
2022/12/26 02:30:00;;;;;;;39.53;25.50;;;;;;;3.96;100.00;100718.00;5050546;28;20152;-70
2022/12/26 02:33:07;;;;;;;31.10;19.67;;;;;;;3.37;100.00;100672.91;5050747;28;20033;-71
2022/12/26 02:35:54;;;;;;;19.55;13.75;;;;;;;4.11;100.00;100726.53;5050176;28;20033;-70
2022/12/26 02:39:10;;;;;;;32.28;19.98;;;;;;;3.94;100.00;100740.59;5050513;28;20045;-70
2022/12/26 02:41:52;;;;;;;28.77;18.88;;;;;;;3.94;100.00;100719.66;4969687;28;20051;-70
2022/12/26 02:47:29;;;;;;;27.10;19.05;;;;;;;3.51;100.00;100748.47;5034161;28;20130;-70
2022/12/26 03:14:27;;;;;;;20.02;12.88;;;;;;;3.01;100.00;100741.91;5054914;28;20111;-69
2022/12/26 03:17:19;;;;;;;17.23;10.02;;;;;;;3.23;100.00;100718.78;5054384;28;20102;-70
2022/12/26 03:19:59;;;;;;;;;;;;;;;3.74;100.00;100789.84;5055013;28;20045;-70
2022/12/26 03:22:35;;;;;;;19.33;12.23;;;;;;;3.50;100.00;100780.31;5036720;28;19919;-72
2022/12/26 03:27:52;;;;;;;23.73;15.07;;;;;;;3.36;100.00;100766.72;5054987;28;20043;-70
2022/12/26 03:33:01;;;;;;;21.15;13.30;;;;;;;2.71;100.00;100671.19;5054124;28;20056;-70
2022/12/26 03:35:30;;;;;;;18.88;12.63;;;;;;;2.71;100.00;100681.22;5053613;28;20041;-69
2022/12/26 03:38:03;;;;;;;19.92;12.65;;;;;;;3.22;100.00;100762.31;5035860;28;20037;-73
2022/12/26 04:20:33;;;;;;;30.33;20.83;;;;;;;2.42;100.00;100847.19;5021597;28;20040;-69
2022/12/26 04:46:05;;;;;;;13.23;8.80;;;;;;;2.38;100.00;100898.09;5052889;28;20044;-70
2022/12/26 04:51:16;;;;;;;9.98;6.85;;;;;;;1.99;100.00;100897.28;5052570;28;20099;-70
2022/12/26 04:53:44;;;;;;;10.52;6.15;;;;;;;2.29;100.00;100907.97;5053376;28;20483;-69
2022/12/26 04:56:10;;;;;;;9.25;6.80;;;;;;;2.54;100.00;100897.59;5052464;28;20041;-71
2022/12/26 04:58:35;;;;;;;10.20;6.82;;;;;;;2.20;100.00;100897.72;5034193;28;20404;-69
2022/12/26 05:09:34;;;;;;;9.75;6.07;;;;;;;2.62;100.00;100948.78;5052353;28;20044;-70
2022/12/26 05:12:01;;;;;;;9.40;6.93;;;;;;;2.40;100.00;100951.66;5052240;28;20037;-68
2022/12/26 05:14:28;;;;;;;11.32;7.40;;;;;;;2.68;100.00;100940.50;5052364;28;20106;-70
2022/12/26 05:30:44;;;;;;;28.35;19.35;;;;;;;2.00;100.00;100978.38;5051949;28;20489;-70
2022/12/26 05:35:53;;;;;;;22.10;15.80;;;;;;;1.91;100.00;100878.75;5051464;28;20075;-69
2022/12/26 05:38:18;;;;;;;20.70;15.32;;;;;;;2.17;100.00;100967.03;5033343;28;20068;-70
2022/12/26 05:40:44;;;;;;;21.15;14.68;;;;;;;2.04;100.00;100975.13;5051586;28;20044;-69
2022/12/26 05:43:09;;;;;;;15.35;11.07;;;;;;;2.47;100.00;100970.22;5051459;28;20033;-69
2022/12/26 05:45:34;;;;;;;18.23;11.55;;;;;;;2.33;100.00;100964.06;5051933;28;20056;-69
2022/12/26 05:48:01;;;;;;;17.42;12.73;;;;;;;1.76;100.00;100906.81;5051696;28;20493;-68
2022/12/26 05:50:26;;;;;;;23.20;15.15;;;;;;;2.12;100.00;100900.91;5033634;28;20049;-68
2022/12/26 05:52:52;;;;;;;21.42;13.73;;;;;;;2.10;100.00;100957.72;5051286;28;20068;-69
2022/12/26 05:55:17;;;;;;;18.95;14.18;;;;;;;1.37;100.00;100910.91;5033768;28;20501;-69
2022/12/26 05:57:43;;;;;;;19.80;13.90;;;;;;;1.70;100.00;100938.44;5050838;28;20103;-70
2022/12/26 06:00:09;;;;;;;23.15;15.90;;;;;;;2.21;100.00;100983.84;5046055;28;20049;-69
2022/12/26 06:02:34;;;;;;;25.48;16.83;;;;;;;2.30;100.00;100969.00;5030780;28;20127;-70
2022/12/26 06:04:59;;;;;;;31.15;20.92;;;;;;;1.90;100.00;100976.47;5039147;28;20124;-69
2022/12/26 06:07:25;;;;;;;34.78;21.77;;;;;;;2.09;100.00;100978.56;5050662;28;20044;-69
2022/12/26 06:09:50;;;;;;;28.88;19.10;;;;;;;1.84;100.00;100916.19;5050167;28;20037;-69
2022/12/26 06:12:16;;;;;;;29.70;18.55;;;;;;;1.45;100.00;100889.41;5050054;28;20041;-69
2022/12/26 06:14:41;;;;;;;37.38;24.73;;;;;;;2.08;100.00;100974.38;5051026;28;20438;-68
2022/12/26 06:17:07;;;;;;;35.67;21.48;;;;;;;1.67;100.00;100910.78;5050875;28;20064;-69
2022/12/26 06:19:33;;;;;;;30.23;18.42;;;;;;;1.91;100.00;100983.16;5049287;28;20522;-69
2022/12/26 06:21:58;;;;;;;29.67;17.70;;;;;;;1.77;100.00;100965.31;5049463;28;20132;-69
2022/12/26 06:24:24;;;;;;;32.95;19.08;;;;;;;1.39;100.00;100891.75;5051599;28;20567;-71
2022/12/26 06:26:49;;;;;;;33.95;20.40;;;;;;;2.08;100.00;100950.13;5032917;28;20063;-68
2022/12/26 06:29:15;;;;;;;36.70;21.58;;;;;;;1.85;100.00;100887.78;5050971;28;20039;-69
2022/12/26 06:31:40;;;;;;;28.42;17.73;;;;;;;2.82;100.00;100888.03;5050564;28;20126;-70
2022/12/26 06:34:05;;;;;;;25.48;16.42;;;;;;;3.49;100.00;100891.69;5048144;28;20041;-69
2022/12/26 06:36:31;;;;;;;21.75;14.25;;;;;;;4.97;100.00;100943.91;5050517;28;20491;-69
2022/12/26 06:38:56;;;;;;;21.30;13.75;;;;;;;5.04;100.00;100909.56;5050596;28;20058;-69
2022/12/26 06:41:23;;;;;;;21.95;14.73;;;;;;;5.89;100.00;100982.56;5050130;28;20418;-70
2022/12/26 06:43:48;;;;;;;20.83;13.30;;;;;;;5.52;100.00;101012.50;5032824;28;20045;-70
2022/12/26 06:46:17;;;;;;;16.67;11.43;;;;;;;5.39;100.00;100956.06;5050292;28;20051;-71
2022/12/26 06:48:43;;;;;;;15.93;10.70;;;;;;;6.50;100.00;101006.50;5050295;28;20102;-70
2022/12/26 06:51:29;;;;;;;16.13;11.07;;;;;;;6.86;100.00;101026.03;5050555;28;20491;-70
2022/12/26 06:53:55;;;;;;;19.02;13.50;;;;;;;6.29;100.00;100958.41;5049764;28;20530;-70
2022/12/26 06:56:23;;;;;;;24.45;16.23;;;;;;;6.11;100.00;100965.91;5032100;28;20033;-70
2022/12/26 06:58:58;;;;;;;23.92;15.93;;;;;;;6.32;100.00;100976.09;5049889;28;20076;-70
2022/12/26 07:01:24;;;;;;;20.83;15.20;;;;;;;5.62;100.00;101079.84;5049812;28;20029;-71
2022/12/26 07:03:52;;;;;;;20.83;14.38;;;;;;;5.58;100.00;101008.38;5032060;28;20075;-70
2022/12/26 07:06:20;;;;;;;19.90;14.00;;;;;;;4.61;100.00;101087.06;5050317;28;20495;-73
2022/12/26 07:08:46;;;;;;;18.33;14.63;;;;;;;4.00;100.00;101012.31;5050417;28;20037;-70
2022/12/26 07:11:16;;;;;;;19.58;15.63;;;;;;;3.63;100.00;101007.53;5049110;28;20580;-71
2022/12/26 07:13:42;;;;;;;21.88;15.82;;;;;;;4.27;100.00;101095.78;5033645;28;20090;-71
2022/12/26 07:16:09;;;;;;;16.73;14.63;;;;;;;3.32;100.00;100965.13;5030352;28;20520;-71
2022/12/26 07:18:35;;;;;;;16.77;12.48;;;;;;;3.68;100.00;101021.03;5030609;28;20065;-72
2022/12/26 07:21:04;;;;;;;14.88;10.98;;;;;;;4.59;100.00;101092.88;5029675;28;20084;-72
2022/12/26 07:23:30;;;;;;;17.65;12.73;;;;;;;4.71;100.00;101076.28;5030238;28;20034;-71
2022/12/26 07:25:56;;;;;;;16.50;12.13;;;;;;;4.39;100.00;101101.00;5013736;28;20512;-70
2022/12/26 07:28:21;;;;;;;15.88;10.40;;;;;;;4.27;100.00;101009.38;5029085;28;20067;-70
2022/12/26 07:30:48;;;;;;;16.20;10.60;;;;;;;4.24;100.00;101030.28;5049995;28;20029;-70
2022/12/26 07:33:13;;;;;;;12.70;9.75;;;;;;;3.95;100.00;101028.16;5032538;28;20397;-70
2022/12/26 07:35:39;;;;;;;18.02;10.80;;;;;;;4.50;100.00;101103.66;5048257;28;20052;-69
2022/12/26 07:38:05;;;;;;;19.67;12.85;;;;;;;4.82;100.00;101074.75;5049459;28;20056;-70
2022/12/26 07:40:30;;;;;;;17.77;12.35;;;;;;;4.88;100.00;101082.38;5049870;28;20029;-70
2022/12/26 07:42:56;;;;;;;18.83;13.02;;;;;;;5.02;100.00;101088.44;5049722;28;20041;-70
2022/12/26 07:45:21;;;;;;;17.13;12.30;;;;;;;4.64;100.00;101088.75;5049760;28;20047;-70
2022/12/26 07:47:46;;;;;;;15.93;10.57;;;;;;;4.85;100.00;101081.50;5030851;28;20047;-71
2022/12/26 07:50:12;;;;;;;12.63;9.27;;;;;;;4.52;100.00;100981.16;5031663;28;20044;-72
2022/12/26 07:52:37;;;;;;;12.75;9.70;;;;;;;5.36;100.00;101083.78;5031469;28;20614;-69
2022/12/26 07:55:03;;;;;;;14.65;9.55;;;;;;;5.09;100.00;101070.03;5048679;28;20171;-68
2022/12/26 07:57:29;;;;;;;16.08;11.98;;;;;;;5.00;100.00;101021.19;5043156;28;20041;-68
2022/12/26 07:59:54;;;;;;;13.93;9.75;;;;;;;6.06;100.00;101076.91;5048333;28;20102;-70
2022/12/26 08:02:20;;;;;;;13.55;9.60;;;;;;;5.07;100.00;100953.25;5050715;28;20040;-70
2022/12/26 08:04:45;;;;;;;13.70;10.40;;;;;;;5.57;100.00;101066.34;5032598;28;20487;-69
2022/12/26 08:07:10;;;;;;;16.02;10.48;;;;;;;5.36;100.00;101041.78;5032992;28;20053;-70
2022/12/26 08:09:38;;;;;;;15.65;10.50;;;;;;;5.78;100.00;101077.50;5032805;28;20036;-69
2022/12/26 08:12:04;;;;;;;15.75;10.13;;;;;;;5.46;100.00;101088.09;5032812;28;20037;-70
2022/12/26 08:14:29;;;;;;;17.83;11.52;;;;;;;5.80;100.00;101005.16;5033254;28;20040;-71
2022/12/26 08:16:55;;;;;;;20.63;12.60;;;;;;;6.13;100.00;101070.25;5032376;28;20049;-69
2022/12/26 08:19:20;;;;;;;21.35;13.30;;;;;;;5.83;100.00;100982.53;5032941;28;20113;-70
2022/12/26 08:21:45;;;;;;;22.25;10.13;;;;;;;7.81;100.00;100909.78;5038589;28;20033;-75
2022/12/26 08:24:12;;;;;;;15.07;11.35;;;;;;;5.87;100.00;100991.81;5029479;28;20508;-71
2022/12/26 08:26:37;;;;;;;15.05;10.52;;;;;;;6.02;100.00;100981.81;5018798;28;20129;-71
2022/12/26 08:29:03;;;;;;;15.82;9.70;;;;;;;6.11;100.00;100960.84;5030428;28;20670;-70
2022/12/26 08:31:28;;;;;;;14.90;9.85;;;;;;;6.80;100.00;101014.22;5032345;28;20044;-72
2022/12/26 08:33:56;;;;;;;15.25;10.60;;;;;;;6.50;100.00;101035.97;5030916;28;20049;-71
2022/12/26 08:36:22;;;;;;;15.73;9.57;;;;;;;6.28;100.00;100981.16;5031227;28;20133;-72
2022/12/26 08:38:47;;;;;;;13.73;9.75;;;;;;;6.45;100.00;100956.81;5032331;28;20482;-72
2022/12/26 08:41:13;;;;;;;14.48;9.55;;;;;;;6.65;100.00;100973.75;5031572;28;20064;-73
2022/12/26 08:43:38;;;;;;;16.58;11.02;;;;;;;6.97;100.00;101047.97;5014424;28;20042;-71
2022/12/26 08:46:05;;;;;;;12.32;8.95;;;;;;;7.25;100.00;101043.03;5014412;28;20522;-70
2022/12/26 08:48:32;;;;;;;14.75;10.27;;;;;;;7.25;100.00;101020.28;5032564;28;20064;-71
2022/12/26 08:51:05;;;;;;;16.77;9.63;;;;;;;7.42;100.00;101014.41;5032550;28;20045;-70
2022/12/26 08:53:34;;;;;;;12.75;8.43;;;;;;;7.07;100.00;100959.53;5032267;28;20030;-71
2022/12/26 08:56:00;;;;;;;15.13;8.80;;;;;;;7.01;100.00;100930.06;5014462;28;20045;-72
2022/12/26 08:58:26;;;;;;;16.40;9.20;;;;;;;7.62;100.00;101009.34;5032631;28;20045;-71
2022/12/26 09:00:51;;;;;;;11.82;8.65;;;;;;;7.62;100.00;100951.16;5032556;28;20427;-71
2022/12/26 09:03:17;;;;;;;27.85;14.75;;;;;;;7.85;100.00;101031.28;5032782;28;20037;-73
2022/12/26 09:05:42;;;;;;;13.45;9.20;;;;;;;7.62;100.00;100961.28;5014850;28;20037;-71
2022/12/26 09:08:09;;;;;;;10.20;7.85;;;;;;;7.90;100.00;101034.66;5030822;28;20038;-70
2022/12/26 09:10:34;;;;;;;9.95;7.10;;;;;;;7.72;100.00;101022.03;5031881;28;20567;-71
2022/12/26 09:13:00;;;;;;;12.38;7.43;;;;;;;7.73;100.00;100969.69;5014304;28;20124;-70
2022/12/26 09:15:25;;;;;;;10.90;6.97;;;;;;;7.73;100.00;100957.03;5032288;28;20044;-71
2022/12/26 09:17:50;;;;;;;12.40;8.05;;;;;;;8.20;100.00;101021.13;5014167;28;20033;-70
2022/12/26 09:20:16;;;;;;;9.18;6.93;;;;;;;8.12;100.00;101030.41;5032125;28;20357;-72
2022/12/26 09:22:50;;;;;;;11.85;8.25;;;;;;;8.14;100.00;101030.44;5031781;28;20052;-71
2022/12/26 09:25:22;;;;;;;13.13;7.55;;;;;;;8.16;100.00;100956.13;5032030;28;20103;-70
2022/12/26 09:27:48;;;;;;;12.27;7.78;;;;;;;7.87;100.00;100930.03;5014593;28;20051;-70
2022/12/26 09:30:15;;;;;;;11.32;8.32;;;;;;;8.44;100.00;101005.06;5014293;28;20033;-70
2022/12/26 09:32:41;;;;;;;13.70;8.13;;;;;;;8.33;100.00;100971.31;5032559;28;20092;-70
2022/12/26 09:35:06;;;;;;;11.15;8.30;;;;;;;8.97;100.00;101020.09;5031724;28;20513;-70
2022/12/26 09:37:32;;;;;;;13.25;8.23;;;;;;;8.94;100.00;101003.19;5031492;28;20200;-69
2022/12/26 09:39:57;;;;;;;14.75;7.65;;;;;;;8.83;100.00;101006.63;5031754;28;20739;-70
2022/12/26 09:42:32;;;;;;;12.82;7.90;;;;;;;9.09;100.00;101013.25;5031630;28;20041;-70
2022/12/26 09:45:15;;;;;;;12.30;8.07;;;;;;;8.69;100.00;101020.19;5031860;28;20118;-72
2022/12/26 09:48:07;;;;;;;10.05;7.63;;;;;;;8.90;100.00;101015.88;5031577;28;20044;-71
2022/12/26 09:50:36;;;;;;;12.15;8.35;;;;;;;8.80;100.00;101012.53;5031241;28;20095;-70
2022/12/26 09:53:06;;;;;;;15.23;10.65;;;;;;;9.10;100.00;101035.25;5031740;28;20045;-70
2022/12/26 09:55:47;;;;;;;16.58;11.02;;;;;;;9.15;100.00;101037.75;5031307;28;20053;-70
2022/12/26 09:58:45;;;;;;;14.18;10.23;;;;;;;9.17;100.00;101043.66;5031812;28;20051;-70
2022/12/26 10:01:19;;;;;;;18.00;12.30;;;;;;;9.14;100.00;101048.75;4998259;28;20136;-71
2022/12/26 10:03:48;;;;;;;18.38;11.35;;;;;;;8.74;100.00;100977.94;5011039;28;20042;-71
2022/12/26 10:06:25;;;;;;;17.40;12.02;;;;;;;9.09;100.00;101025.94;5011935;28;20172;-70
2022/12/26 10:09:14;;;;;;;18.27;12.52;;;;;;;9.34;100.00;101044.41;5011770;28;20034;-70
2022/12/26 10:12:04;;;;;;;18.05;11.55;;;;;;;9.45;100.00;101048.56;5011713;28;20045;-70
2022/12/26 10:15:06;;;;;;;17.80;12.65;;;;;;;9.51;100.00;101038.38;5011551;28;20117;-70
2022/12/26 10:17:59;;;;;;;17.90;11.45;;;;;;;9.65;100.00;101058.59;5011281;28;20064;-70
2022/12/26 10:20:39;;;;;;;23.23;13.45;;;;;;;8.77;100.00;100912.84;5011558;28;20100;-71
2022/12/26 10:23:23;;;;;;;21.27;13.82;;;;;;;9.89;100.00;101049.94;5010964;28;20050;-71
2022/12/26 10:25:58;;;;;;;15.60;11.27;;;;;;;9.17;100.00;100986.13;5011414;28;20044;-70
2022/12/26 10:29:07;;;;;;;16.48;10.00;;;;;;;9.70;100.00;101067.03;5011288;28;20041;-73
2022/12/26 10:31:43;;;;;;;14.43;9.10;;;;;;;9.51;100.00;100994.38;5000398;28;20040;-70
2022/12/26 10:34:33;;;;;;;16.30;10.98;;;;;;;10.04;100.00;101076.06;5010627;28;20069;-71
2022/12/26 10:37:02;;;;;;;15.63;11.48;;;;;;;10.03;100.00;101091.31;5011073;28;20033;-71
2022/12/26 10:39:49;;;;;;;11.13;7.70;;;;;;;9.94;100.00;101082.09;4993371;28;20070;-70
2022/12/26 10:42:26;;;;;;;12.57;8.68;;;;;;;10.06;100.00;101091.31;5010868;28;20316;-71
2022/12/26 10:44:52;;;;;;;13.52;9.35;;;;;;;10.08;100.00;101089.59;5011333;28;20404;-71
2022/12/26 10:47:40;;;;;;;12.32;8.82;;;;;;;10.18;100.00;101094.59;5010648;28;20096;-71
2022/12/26 10:50:10;;;;;;;16.42;10.68;;;;;;;10.07;100.00;101092.97;5011071;28;20037;-70
2022/12/26 10:52:39;;;;;;;9.60;7.72;;;;;;;10.15;100.00;101084.47;5011096;28;20096;-70
2022/12/26 10:55:11;;;;;;;11.95;8.15;;;;;;;10.37;100.00;101093.59;5010882;28;20062;-70
2022/12/26 10:57:40;;;;;;;10.77;6.65;;;;;;;9.95;100.00;101034.66;4993656;28;20034;-72
2022/12/26 11:00:20;;;;;;;12.98;8.07;;;;;;;10.12;100.00;101026.06;5006645;28;20073;-71
2022/12/26 11:03:07;;;;;;;20.67;13.55;;;;;;;10.05;100.00;101034.56;5030590;28;20124;-70
2022/12/26 11:05:47;;;;;;;11.57;7.47;;;;;;;10.02;100.00;101042.19;5030400;28;20041;-70
2022/12/26 11:08:24;;;;;;;10.68;7.63;;;;;;;9.88;100.00;101026.25;5027035;28;20510;-70
2022/12/26 11:11:13;;;;;;;14.45;9.40;;;;;;;10.50;100.00;101109.56;5012559;28;20037;-70
2022/12/26 11:13:47;;;;;;;14.00;8.70;;;;;;;10.73;100.00;101107.66;5030690;28;20523;-69
2022/12/26 11:16:24;;;;;;;11.68;7.80;;;;;;;10.44;100.00;101056.25;5028115;28;20484;-70
2022/12/26 11:18:51;;;;;;;10.80;7.57;;;;;;;10.24;100.00;101036.09;5012566;28;20171;-71
2022/12/26 11:21:16;;;;;;;13.38;8.10;;;;;;;10.95;100.00;101114.19;5050000;28;20404;-70
2022/12/26 11:23:43;;;;;;;9.65;6.53;;;;;;;10.45;100.00;101047.78;5049453;28;20048;-70
2022/12/26 11:26:20;;;;;;;10.80;6.90;;;;;;;10.75;100.00;101138.16;5049460;28;20513;-70
2022/12/26 11:28:46;;;;;;;12.55;8.18;;;;;;;10.57;100.00;101095.97;5050074;28;20558;-71
2022/12/26 11:31:30;;;;;;;9.50;7.15;;;;;;;10.21;100.00;101056.47;5049497;28;20199;-69
2022/12/26 11:33:58;;;;;;;11.18;7.55;;;;;;;10.95;100.00;101142.16;5051158;28;20422;-70
2022/12/26 11:36:26;;;;;;;9.32;6.65;;;;;;;10.37;100.00;101062.25;5035893;28;20052;-70
2022/12/26 11:38:57;;;;;;;21.63;16.23;;;;;;;10.61;100.00;101056.06;5053620;28;20120;-70
2022/12/26 11:41:31;;;;;;;13.52;10.50;;;;;;;10.98;100.00;101116.69;5054047;28;20037;-69
2022/12/26 11:44:13;;;;;;;11.57;7.75;;;;;;;11.11;100.00;101112.31;5053876;28;20518;-70
2022/12/26 11:47:15;;;;;;;11.23;6.90;;;;;;;10.98;100.00;101116.69;5054189;28;20029;-70
2022/12/26 11:50:00;;;;;;;12.00;6.95;;;;;;;11.01;100.00;101123.47;5053135;28;20045;-70
2022/12/26 11:52:39;;;;;;;10.93;7.13;;;;;;;11.08;100.00;101127.63;5053744;28;20037;-70
2022/12/26 11:55:23;;;;;;;11.20;7.40;;;;;;;11.27;100.00;101134.16;5053670;28;20083;-71
2022/12/26 11:58:16;;;;;;;8.75;5.90;;;;;;;10.53;100.00;101073.13;5053625;28;20418;-71
2022/12/26 12:01:05;;;;;;;18.50;7.43;;;;;;;11.13;100.00;101134.31;5035578;28;20052;-72
2022/12/26 12:03:35;;;;;;;10.35;6.60;;;;;;;11.34;100.00;101149.38;5050875;28;20045;-73
2022/12/26 12:06:19;;;;;;;9.27;6.93;;;;;;;11.49;100.00;101134.75;5053262;28;20072;-71
2022/12/26 12:08:57;;;;;;;11.60;7.07;;;;;;;11.26;100.00;101147.75;5053785;28;20442;-71
2022/12/26 12:12:10;;;;;;;10.85;7.30;;;;;;;11.25;100.00;101141.00;5053420;28;20127;-71
2022/12/26 12:15:11;;;;;;;12.10;7.30;;;;;;;11.28;100.00;101141.81;4972328;28;20137;-70
2022/12/26 12:17:42;;;;;;;9.27;6.05;;;;;;;11.66;100.00;101160.88;4972683;28;20062;-70
2022/12/26 12:20:08;;;;;;;12.25;7.60;;;;;;;11.72;100.00;101155.69;5037678;28;20491;-70
2022/12/26 12:22:56;;;;;;;13.27;7.53;;;;;;;11.75;100.00;101168.38;5053099;28;20076;-71
2022/12/26 12:25:39;;;;;;;16.67;13.30;;;;;;;11.61;100.00;101168.53;5053592;28;20090;-70
2022/12/26 12:28:10;;;;;;;22.20;16.17;;;;;;;11.69;100.00;101166.75;5053160;28;20059;-71
2022/12/26 12:31:00;;;;;;;10.77;7.53;;;;;;;11.92;100.00;101180.00;5052858;28;20037;-70
2022/12/26 12:33:29;;;;;;;12.52;8.25;;;;;;;12.03;100.00;101182.44;5052763;28;20036;-70
2022/12/26 12:36:06;;;;;;;13.25;9.00;;;;;;;12.04;100.00;101182.41;5053104;28;20060;-72
2022/12/26 12:38:50;;;;;;;10.93;7.22;;;;;;;11.88;100.00;101196.25;5035453;28;20407;-70
2022/12/26 12:41:47;;;;;;;10.43;6.43;;;;;;;11.83;100.00;101197.16;5052326;28;20412;-70
2022/12/26 12:44:34;;;;;;;10.32;7.05;;;;;;;11.86;100.00;101192.88;5052009;28;20045;-70
2022/12/26 12:47:13;;;;;;;12.07;7.85;;;;;;;12.11;100.00;101201.84;5052284;28;20465;-69
2022/12/26 12:49:41;;;;;;;13.95;7.88;;;;;;;12.05;100.00;101214.69;5052651;28;20037;-70
2022/12/26 12:52:45;;;;;;;12.32;7.72;;;;;;;12.23;100.00;101202.53;5053113;28;20123;-71
2022/12/26 12:55:19;;;;;;;11.05;7.30;;;;;;;12.16;100.00;101212.00;5053002;28;20044;-70
2022/12/26 12:57:54;;;;;;;15.55;10.50;;;;;;;12.11;100.00;101195.91;5052562;28;20642;-70
2022/12/26 13:00:27;;;;;;;11.35;8.18;;;;;;;12.01;100.00;101185.00;5052245;28;20041;-71
2022/12/26 13:03:28;;;;;;;13.93;9.43;;;;;;;12.02;100.00;101201.97;5052566;28;20040;-70
2022/12/26 13:06:17;;;;;;;11.77;8.38;;;;;;;11.87;100.00;101207.28;5038872;28;20048;-69
2022/12/26 13:08:54;;;;;;;16.35;10.63;;;;;;;11.56;100.00;101123.63;5024082;28;20041;-70
2022/12/26 13:11:32;;;;;;;12.27;7.97;;;;;;;11.83;100.00;101184.41;5052421;28;20030;-70
2022/12/26 13:14:06;;;;;;;10.10;6.78;;;;;;;11.30;100.00;101118.88;5052374;28;20053;-70
2022/12/26 13:16:42;;;;;;;36.58;17.90;;;;;;;11.40;100.00;101138.25;5052172;28;20037;-70
2022/12/26 13:19:17;;;;;;;28.58;14.70;;;;;;;11.66;100.00;101199.94;5052148;28;20113;-70
2022/12/26 13:21:44;;;;;;;18.63;10.52;;;;;;;11.09;100.00;101114.03;5051608;28;20041;-70
2022/12/26 13:24:25;;;;;;;17.10;10.70;;;;;;;11.34;100.00;101182.47;5034084;28;20117;-71
2022/12/26 13:26:53;;;;;;;13.40;9.20;;;;;;;11.50;100.00;101178.03;5031728;28;20523;-69
2022/12/26 13:29:30;;;;;;;12.80;8.48;;;;;;;11.53;100.00;101172.06;5051832;28;20044;-69
2022/12/26 13:32:00;;;;;;;11.57;6.88;;;;;;;11.03;100.00;101106.47;5052197;28;20454;-70
2022/12/26 13:34:25;;;;;;;13.00;7.72;;;;;;;11.32;100.00;101148.53;5051584;28;20098;-70
2022/12/26 13:36:54;;;;;;;10.55;6.75;;;;;;;11.40;100.00;101153.53;5051451;28;20459;-70
2022/12/26 13:39:26;;;;;;;10.43;7.25;;;;;;;13.37;100.00;101176.72;5033752;28;20029;-70
2022/12/26 13:44:40;;;;;;;10.75;6.95;;;;;;;11.40;100.00;101178.16;5051427;28;20593;-69